Air Resources Laboratory banner image
Air Resources Laboratory web site National Oceanic and Atmospheric Administration (NOAA)

wa metar


KALW 222253Z 03007KT 10SM CLR 30/12 A2977 RMK AO2 SLP074 T03000117=
KAWO 222256Z AUTO 31010KT 10SM CLR 24/13 A2986 RMK AO2 SLP116 T02390133=
KBFI 222253Z 33009KT 10SM CLR 24/10 A2985 RMK AO2 SLP108 T02390100 $=
KBLI 222253Z 26006KT 10SM CLR 22/11 A2987 RMK AO2 SLP119 T02220111=
KBVS 222255Z AUTO 29008KT 10SM CLR 22/13 A2987 RMK A01=
KCLM 222253Z AUTO 31008KT 10SM CLR 16/11 A2992 RMK AO2 SLP130 T01560111=
KDEW 222253Z AUTO 02008KT 10SM CLR 29/07 A2984 RMK AO2 SLP096 T02940067=
KEAT 222255Z AUTO 25005KT 10SM CLR 29/06 A2981 RMK AO2 SLP085 T02890056=
KELN 222253Z AUTO 00000KT 10SM CLR 31/04 A2983 RMK AO2 SLP092 T03060039=
KEPH 222253Z AUTO VRB05KT 10SM CLR 31/06 A2981 RMK AO2 SLP085 T03110061=
KFHR 222253Z AUTO 22008KT 10SM CLR 20/11 A2989 RMK AO2 SLP121 T02000111 TSNO=
KGEG 222253Z 35005G15KT 10SM FEW060 FEW200 28/06 A2985 RMK AO2 SLP092 CB DSNT
 NE-SE T02830061=
KGRF 222258Z 32006KT 10SM CLR 25/14 A2985 RMK AO2A SLP111 T02540139 $=
KHQM 222253Z AUTO 26011KT 9SM CLR 19/13 A2989 RMK AO2 SLP124 T01940128=
KKLS 222256Z AUTO 29007KT 10SM CLR 27/15 A2981 RMK AO2 SLP099 T02720150=
KMWH 222252Z 10SM CLR 31/07 A2981 RMK AO2 SLP089 T03060072=
KNOW 222255Z AUTO 29014KT 7SM OVC001 12/09 A2991 RMK AO2 T01230094=
KNUW 222256Z 28006KT 10SM FEW040 SCT250 16/11 A2993 RMK AO2 SLP133 T01610111 $=
KOLM 222254Z 05005KT 10SM CLR 27/09 A2984 RMK AO2 SLP106 T02670094=
KOMK 222253Z AUTO 31004KT 10SM CLR 30/06 A2983 RMK AO2 SLP094 T03000061 $=
KORS 222255Z AUTO 32004KT 10SM CLR 21/10 A2987 RMK AO2=
KPAE 222253Z 32007KT 290V360 10SM CLR 21/12 A2988 RMK AO2 SLP118 T02060117=
KPSC 222253Z 32010G17KT 10SM FEW080 31/13 A2976 RMK AO2 SLP073 T03110133=
KPUW 222253Z AUTO 34005KT 10SM CLR 26/12 A2985 RMK AO2 SLP096 T02610122=
KPWT 222256Z AUTO 03009KT 10SM CLR 24/13 A2986 RMK AO2 SLP126 T02390128=
KRNT 222253Z 31008KT 8SM CLR 24/11 A2984 RMK AO2 SLP111 T02440111=
KSEA 222253Z 36009KT 10SM FEW050 26/10 A2987 RMK AO2 SLP117 T02560100=
KSFF 222253Z 32007G19KT 10SM FEW060 29/08 A2982 RMK AO2 SLP086 T02940078=
KSHN 222253Z AUTO 02003KT 10SM CLR 29/10 A2982 RMK AO2 SLP096 T02890100=
KSKA 222258Z AUTO 01007KT 10SM CLR 27/08 A2985 RMK AO2 SLP098 T02690078 $=
KSMP 222256Z AUTO VRB04KT 10SM BKN065 22/08 A2994 RMK AO2 SLP111 T02220083 $=
KTCM 222258Z AUTO 00000KT 10SM CLR 25/14 A2986 RMK AO2 SLP115 T02480143 $=
KTIW 222253Z 06007KT 020V090 10SM CLR 22/11 A2985 RMK AO2 SLP109 T02170106=
KUIL 222253Z AUTO 31010KT 10SM CLR 18/11 A2992 RMK AO2 SLP132 T01780106 $=
KVUO 222253Z AUTO 32007G15KT 10SM CLR 28/13 A2977 RMK AO2 SLP081 T02830133=
KYKM 222253Z 29007KT 270V330 10SM CLR 31/07 A2980 RMK AO2 SLP082 T03110072=